Time;durP1;ratioP1;P1;durP2;ratioP2;P2;SDS_P1;SDS_P2;PMS_P1;PMS_P2;Temp;Humidity;BMP_temperature;BMP_pressure;BME280_temperature;BME280_humidity;BME280_pressure;Samples;Min_cycle;Max_cycle;Signal;HPM_P1;HPM_P2
2021/09/08 00:01:33;;;;;;;36.38;21.42;;;;;;;9.92;72.67;101143.89;1775240;78;26889;-68
2021/09/08 00:04:00;;;;;;;32.80;20.50;;;;;;;9.90;72.60;101146.88;1767675;79;25796;-68
2021/09/08 00:06:27;;;;;;;34.98;22.07;;;;;;;9.89;72.68;101147.98;1750819;80;25662;-68
2021/09/08 00:08:54;;;;;;;36.73;20.57;;;;;;;9.86;72.53;101148.55;1757444;80;26011;-69
2021/09/08 00:11:20;;;;;;;35.43;20.90;;;;;;;9.85;72.71;101148.82;1770407;79;27315;-67
2021/09/08 00:13:47;;;;;;;31.75;20.17;;;;;;;9.82;72.85;101149.38;1763861;79;26359;-67
2021/09/08 00:16:15;;;;;;;37.35;21.20;;;;;;;9.80;72.80;101154.27;1754867;80;25799;-66
2021/09/08 00:18:42;;;;;;;33.30;20.68;;;;;;;9.76;72.76;101152.68;1692119;83;26194;-66
2021/09/08 00:21:09;;;;;;;31.65;20.32;;;;;;;9.73;72.74;101154.03;1755392;80;25898;-66
2021/09/08 00:23:35;;;;;;;32.23;20.57;;;;;;;9.73;72.90;101151.89;1755132;81;29052;-66
2021/09/08 00:26:02;;;;;;;32.55;22.20;;;;;;;9.71;72.77;101158.13;1692846;83;25836;-66
2021/09/08 00:28:28;;;;;;;34.43;20.43;;;;;;;9.70;72.89;101156.50;1754038;80;25391;-69
2021/09/08 00:30:55;;;;;;;35.38;22.22;;;;;;;9.68;73.09;101154.08;1696097;83;25755;-68
2021/09/08 00:33:21;;;;;;;31.87;21.10;;;;;;;9.67;73.12;101153.00;1750065;80;25774;-69
2021/09/08 00:35:48;;;;;;;36.63;22.25;;;;;;;9.66;72.97;101153.55;1760841;80;27922;-69
2021/09/08 00:38:15;;;;;;;31.57;21.35;;;;;;;9.64;73.21;101155.73;1754682;79;25758;-69
2021/09/08 00:40:42;;;;;;;34.95;21.85;;;;;;;9.64;73.22;101153.03;1746358;80;25705;-69
2021/09/08 00:43:08;;;;;;;33.92;21.85;;;;;;;9.62;73.38;101158.44;1762578;79;27920;-69
2021/09/08 00:45:35;;;;;;;33.45;21.30;;;;;;;9.60;73.33;101156.57;1747288;80;25963;-68
2021/09/08 00:48:01;;;;;;;35.38;21.45;;;;;;;9.57;73.18;101153.08;1758247;80;27345;-69
2021/09/08 00:50:28;;;;;;;35.58;21.23;;;;;;;9.55;73.05;101154.70;1764035;79;25712;-69
2021/09/08 00:52:59;;;;;;;37.00;21.20;;;;;;;9.50;73.40;101153.39;1759379;79;25592;-70
2021/09/08 00:55:27;;;;;;;33.88;20.85;;;;;;;9.49;73.38;101151.23;1690648;83;25839;-69
2021/09/08 00:57:54;;;;;;;34.80;21.17;;;;;;;9.49;73.50;101151.23;1752672;80;25818;-68
2021/09/08 01:00:22;;;;;;;36.00;21.77;;;;;;;9.48;73.35;101144.25;1764783;80;25889;-68
2021/09/08 01:02:48;;;;;;;32.90;20.70;;;;;;;9.48;73.46;101146.12;1757146;80;25500;-68
2021/09/08 01:05:15;;;;;;;36.30;22.17;;;;;;;9.46;73.37;101151.00;1767949;80;25848;-68
2021/09/08 01:07:42;;;;;;;33.50;21.12;;;;;;;9.43;73.30;101148.85;1753574;80;27794;-68
2021/09/08 01:10:10;;;;;;;39.65;22.67;;;;;;;9.38;73.24;101150.23;1755226;80;25621;-68
2021/09/08 01:12:38;;;;;;;32.00;21.82;;;;;;;9.35;73.47;101151.06;1756709;79;27444;-68
2021/09/08 01:15:05;;;;;;;31.10;20.62;;;;;;;9.33;73.23;101157.81;1750127;80;26318;-69
2021/09/08 01:17:32;;;;;;;37.20;22.55;;;;;;;9.30;73.28;101151.65;1697058;83;25653;-69
2021/09/08 01:19:58;;;;;;;35.92;23.10;;;;;;;9.28;73.48;101152.45;1700452;82;25803;-69
2021/09/08 01:22:30;;;;;;;34.27;22.05;;;;;;;9.26;73.68;101154.10;1704853;82;25683;-69
2021/09/08 01:24:56;;;;;;;35.03;21.52;;;;;;;9.24;73.75;101154.90;1691384;82;27292;-69
2021/09/08 01:27:25;;;;;;;36.95;21.85;;;;;;;9.21;73.52;101156.00;1720713;82;25814;-70
2021/09/08 01:29:51;;;;;;;33.25;20.90;;;;;;;9.20;73.70;101158.45;1698851;83;25451;-69
2021/09/08 01:32:18;;;;;;;36.95;22.75;;;;;;;9.18;73.66;101156.03;1755325;79;26151;-69
2021/09/08 01:34:45;;;;;;;33.15;20.75;;;;;;;9.17;73.60;101157.10;1749429;80;25787;-69
2021/09/08 01:37:11;;;;;;;36.42;22.22;;;;;;;9.15;73.76;101151.19;1763188;79;27420;-69
2021/09/08 01:39:38;;;;;;;34.80;20.90;;;;;;;9.13;73.83;101146.61;1753059;79;25625;-69
2021/09/08 01:42:05;;;;;;;33.65;22.15;;;;;;;9.11;73.64;101152.28;1760934;80;25370;-69
2021/09/08 01:44:32;;;;;;;43.68;22.98;;;;;;;9.07;73.51;101148.51;1746589;80;25726;-69
2021/09/08 01:46:58;;;;;;;38.80;20.85;;;;;;;9.05;73.51;101150.69;1752663;80;25784;-69
2021/09/08 01:49:25;;;;;;;33.65;20.15;;;;;;;9.02;73.53;101148.53;1746360;80;28054;-69
2021/09/08 01:51:52;;;;;;;32.42;20.52;;;;;;;9.01;73.82;101150.16;1757454;80;25714;-69
2021/09/08 01:54:20;;;;;;;29.20;18.80;;;;;;;8.96;73.83;101148.31;1768044;79;25400;-69
2021/09/08 01:56:46;;;;;;;29.52;19.95;;;;;;;8.95;74.20;101142.09;1767730;80;26251;-69
2021/09/08 01:59:13;;;;;;;32.15;19.32;;;;;;;8.94;74.07;101145.89;1764606;79;25818;-68
2021/09/08 02:01:39;;;;;;;32.23;18.67;;;;;;;8.93;74.05;101149.66;1763364;80;28171;-69
2021/09/08 02:04:05;;;;;;;27.50;18.05;;;;;;;8.92;73.96;101145.88;1768692;79;25861;-68
2021/09/08 02:06:32;;;;;;;30.15;19.10;;;;;;;8.91;74.06;101142.94;1763306;79;26233;-69
2021/09/08 02:09:00;;;;;;;29.82;17.95;;;;;;;8.90;74.05;101144.02;1762315;80;25804;-69
2021/09/08 02:11:28;;;;;;;29.63;18.67;;;;;;;8.89;73.92;101143.77;1740063;80;25830;-68
2021/09/08 02:13:54;;;;;;;28.67;18.82;;;;;;;8.87;73.96;101139.98;1751093;80;28061;-68
2021/09/08 02:16:21;;;;;;;28.35;17.60;;;;;;;8.84;73.85;101127.59;1764563;80;27197;-69
2021/09/08 02:18:50;;;;;;;27.27;17.90;;;;;;;8.82;73.95;101133.27;1764174;80;26845;-69
2021/09/08 02:21:17;;;;;;;30.02;18.57;;;;;;;8.81;74.01;101136.23;1771986;79;26287;-68
2021/09/08 02:23:44;;;;;;;32.65;18.60;;;;;;;8.78;74.03;101132.19;1757159;80;25659;-69
2021/09/08 02:26:10;;;;;;;32.05;18.45;;;;;;;8.76;74.08;101133.01;1758812;79;29522;-69
2021/09/08 02:28:37;;;;;;;27.20;17.15;;;;;;;8.76;74.30;101138.41;1770853;79;26826;-69
2021/09/08 02:31:06;;;;;;;27.48;18.10;;;;;;;8.74;74.27;101138.68;1757014;79;25798;-69
2021/09/08 02:33:32;;;;;;;25.45;16.05;;;;;;;8.72;74.40;101133.31;1766560;79;25439;-69
2021/09/08 02:35:58;;;;;;;29.30;17.10;;;;;;;8.70;74.48;101133.58;1761282;80;25651;-68
2021/09/08 02:38:25;;;;;;;27.37;17.77;;;;;;;8.68;74.53;101132.23;1745705;79;27317;-68
2021/09/08 02:40:51;;;;;;;42.98;21.95;;;;;;;8.67;74.48;101138.17;1752039;80;26536;-68
2021/09/08 02:43:18;;;;;;;36.20;20.95;;;;;;;8.67;74.63;101143.56;1764021;80;25751;-68
2021/09/08 02:45:44;;;;;;;27.02;17.82;;;;;;;8.65;74.59;101137.64;1749911;80;27909;-68
2021/09/08 02:48:11;;;;;;;29.32;17.55;;;;;;;8.65;74.48;101134.12;1757325;80;25532;-68
2021/09/08 02:50:37;;;;;;;33.00;18.20;;;;;;;8.64;74.73;101133.88;1765966;79;31175;-68
2021/09/08 02:53:05;;;;;;;31.90;18.00;;;;;;;8.64;74.75;101137.92;1747291;79;26554;-68
2021/09/08 02:55:31;;;;;;;29.40;17.57;;;;;;;8.60;74.77;101135.77;1767323;80;25681;-68
2021/09/08 02:57:58;;;;;;;30.32;17.65;;;;;;;8.58;74.86;101139.28;1752317;79;25649;-69
2021/09/08 03:00:24;;;;;;;27.42;17.37;;;;;;;8.56;74.56;101136.58;1769602;79;25650;-69
2021/09/08 03:02:51;;;;;;;26.42;16.57;;;;;;;8.55;74.41;101136.33;1765481;79;27543;-69
2021/09/08 03:05:17;;;;;;;28.42;16.32;;;;;;;8.54;74.23;101139.55;1761930;78;25810;-68
2021/09/08 03:07:44;;;;;;;28.73;16.35;;;;;;;8.53;74.14;101145.22;1754621;80;25473;-68
2021/09/08 03:10:11;;;;;;;22.45;14.35;;;;;;;8.50;74.03;101140.39;1752337;80;25835;-68
2021/09/08 03:12:38;;;;;;;24.35;14.75;;;;;;;8.48;74.11;101131.23;1750030;81;25849;-69
2021/09/08 03:15:07;;;;;;;24.55;14.87;;;;;;;8.46;74.21;101137.41;1758091;80;27364;-69
2021/09/08 03:17:33;;;;;;;24.10;15.60;;;;;;;8.43;74.13;101139.33;1746428;80;25476;-69
2021/09/08 03:20:00;;;;;;;19.73;14.23;;;;;;;8.41;74.15;101146.31;1768299;79;25649;-69
2021/09/08 03:22:26;;;;;;;24.85;16.75;;;;;;;8.37;74.06;101139.03;1765338;80;25887;-69
2021/09/08 03:24:53;;;;;;;25.45;15.58;;;;;;;8.34;74.36;101144.97;1773081;79;25784;-69
2021/09/08 03:27:19;;;;;;;25.62;15.25;;;;;;;8.32;74.47;101143.09;1778267;79;27359;-69
2021/09/08 03:29:46;;;;;;;25.12;16.10;;;;;;;8.30;74.64;101147.40;1756956;80;25635;-68
2021/09/08 03:32:13;;;;;;;23.27;15.08;;;;;;;8.28;74.61;101148.22;1758753;80;25502;-68
2021/09/08 03:34:39;;;;;;;26.10;16.52;;;;;;;8.24;74.53;101140.42;1758219;79;25830;-68
2021/09/08 03:37:06;;;;;;;27.55;16.70;;;;;;;8.23;74.58;101143.64;1762386;80;25907;-68
2021/09/08 03:39:32;;;;;;;28.20;17.57;;;;;;;8.19;74.52;101141.23;1759722;80;27259;-68
2021/09/08 03:41:59;;;;;;;25.40;14.87;;;;;;;8.19;74.72;101143.13;1764183;78;25424;-68
2021/09/08 03:44:25;;;;;;;25.80;16.80;;;;;;;8.16;74.96;101148.50;1756340;80;25725;-68
2021/09/08 03:46:52;;;;;;;25.08;15.95;;;;;;;8.16;74.99;101147.16;1751721;80;25802;-68
2021/09/08 03:49:18;;;;;;;25.08;15.70;;;;;;;8.15;75.03;101152.27;1756981;80;25851;-68
2021/09/08 03:51:44;;;;;;;25.30;15.95;;;;;;;8.15;74.90;101147.42;1759152;80;27557;-68
2021/09/08 03:54:11;;;;;;;27.42;16.48;;;;;;;8.14;74.84;101148.49;1778202;80;25637;-68
2021/09/08 03:56:38;;;;;;;23.22;14.75;;;;;;;8.12;74.69;101146.09;1763533;78;25595;-68
2021/09/08 03:59:05;;;;;;;25.45;15.50;;;;;;;8.12;74.87;101137.19;1752554;80;25823;-68
2021/09/08 04:01:31;;;;;;;23.10;15.70;;;;;;;8.10;74.98;101138.80;1764715;80;25799;-68
2021/09/08 04:03:58;;;;;;;26.25;15.75;;;;;;;8.09;74.84;101140.41;1762924;78;27345;-68
2021/09/08 04:06:24;;;;;;;26.02;15.20;;;;;;;8.06;74.84;101143.13;1756993;79;27206;-68
2021/09/08 04:08:51;;;;;;;22.15;14.40;;;;;;;8.03;74.81;101139.08;1773764;79;25830;-69
2021/09/08 04:11:17;;;;;;;23.60;15.03;;;;;;;8.03;75.00;101147.70;1759693;78;25874;-69
2021/09/08 04:13:43;;;;;;;24.72;14.87;;;;;;;8.00;74.97;101144.20;1762477;79;25929;-69
2021/09/08 04:16:10;;;;;;;24.05;14.78;;;;;;;7.99;75.01;101139.91;1763793;78;27375;-69
2021/09/08 04:18:36;;;;;;;22.32;14.47;;;;;;;7.98;75.12;101144.47;1770108;80;26260;-69
2021/09/08 04:21:03;;;;;;;24.30;15.08;;;;;;;7.99;75.33;101145.30;1746440;78;25820;-69
2021/09/08 04:23:30;;;;;;;22.93;14.35;;;;;;;7.99;75.34;101147.44;1774102;79;26577;-68
2021/09/08 04:25:56;;;;;;;29.85;15.48;;;;;;;8.01;75.45;101145.83;1767928;79;25827;-68
2021/09/08 04:28:23;;;;;;;44.13;18.82;;;;;;;8.02;75.52;101152.30;1761676;80;27378;-68
2021/09/08 04:30:50;;;;;;;52.05;22.82;;;;;;;8.03;75.66;101144.46;1753939;80;25580;-68
2021/09/08 04:33:16;;;;;;;69.32;26.37;;;;;;;8.05;75.89;101150.93;1698397;82;25971;-68
2021/09/08 04:35:43;;;;;;;51.88;21.60;;;;;;;8.06;75.97;101149.86;1694917;83;26158;-67
2021/09/08 04:38:09;;;;;;;37.78;18.30;;;;;;;8.10;75.90;101145.53;1703609;82;25419;-70
2021/09/08 04:40:36;;;;;;;26.35;14.87;;;;;;;8.12;76.03;101149.31;1707239;82;27500;-69
2021/09/08 04:43:02;;;;;;;18.90;13.88;;;;;;;8.15;75.97;101150.12;1750800;80;25640;-69
2021/09/08 04:45:29;;;;;;;25.88;15.48;;;;;;;8.17;75.95;101150.13;1752392;79;25870;-70
2021/09/08 04:47:55;;;;;;;24.12;14.40;;;;;;;8.20;76.10;101148.77;1752478;80;25804;-70
2021/09/08 04:50:22;;;;;;;26.42;15.70;;;;;;;8.23;76.12;101153.06;1761604;80;25409;-69
2021/09/08 04:52:48;;;;;;;23.38;15.45;;;;;;;8.27;76.35;101149.84;1750869;79;27368;-70
2021/09/08 04:55:15;;;;;;;23.92;14.78;;;;;;;8.30;76.37;101148.75;1742045;80;26807;-70
2021/09/08 04:57:41;;;;;;;26.25;14.50;;;;;;;8.32;76.27;101144.44;1755125;80;25772;-69
2021/09/08 05:00:10;;;;;;;23.80;14.35;;;;;;;8.36;76.25;101153.58;1760309;79;26218;-69
2021/09/08 05:02:37;;;;;;;23.87;14.47;;;;;;;8.38;76.30;101155.48;1808562;77;25612;-69
2021/09/08 05:05:05;;;;;;;25.17;13.68;;;;;;;8.42;76.37;101151.16;1798687;76;27390;-69
2021/09/08 05:07:32;;;;;;;21.75;13.45;;;;;;;8.46;76.54;101151.44;1799132;78;27029;-70
2021/09/08 05:09:58;;;;;;;21.82;14.53;;;;;;;8.50;76.54;101156.02;1806373;77;25995;-69
2021/09/08 05:12:25;;;;;;;23.15;14.98;;;;;;;8.55;76.75;101156.56;1814405;76;25634;-69
2021/09/08 05:14:51;;;;;;;26.10;15.05;;;;;;;8.62;76.95;101155.72;1814838;76;25647;-69
2021/09/08 05:17:18;;;;;;;19.82;13.43;;;;;;;8.69;77.17;101149.48;1793593;75;27444;-69
2021/09/08 05:19:44;;;;;;;21.52;13.08;;;;;;;8.76;77.51;101154.59;1781421;78;25784;-69
2021/09/08 05:22:10;;;;;;;20.97;13.78;;;;;;;8.85;77.59;101153.47;1788353;77;25738;-69
2021/09/08 05:24:37;;;;;;;24.50;14.30;;;;;;;8.94;77.89;101145.89;1799786;78;25669;-69
2021/09/08 05:27:04;;;;;;;21.23;13.15;;;;;;;9.06;78.01;101146.08;1784881;77;25597;-69
2021/09/08 05:29:31;;;;;;;23.95;14.83;;;;;;;9.18;78.12;101143.05;1786318;79;28000;-69
2021/09/08 05:31:57;;;;;;;21.25;13.15;;;;;;;9.29;78.25;101150.81;1779974;78;25949;-69
2021/09/08 05:34:24;;;;;;;19.60;13.55;;;;;;;9.42;78.20;101156.16;1781013;77;25667;-69
2021/09/08 05:36:53;;;;;;;20.85;14.40;;;;;;;9.55;78.52;101154.70;1788405;77;26378;-70
2021/09/08 05:39:19;;;;;;;22.42;12.95;;;;;;;9.69;78.48;101153.00;1780606;77;26138;-69
2021/09/08 05:41:46;;;;;;;24.15;12.73;;;;;;;9.83;78.45;101149.10;1784030;78;27301;-69
2021/09/08 05:44:13;;;;;;;25.27;14.55;;;;;;;10.00;78.62;101150.59;1783395;77;25479;-69
2021/09/08 05:46:39;;;;;;;24.05;14.05;;;;;;;10.13;78.62;101147.23;1786494;77;25359;-69
2021/09/08 05:49:06;;;;;;;21.77;13.55;;;;;;;10.30;78.43;101160.33;1813160;76;25840;-69
2021/09/08 05:51:32;;;;;;;21.50;13.28;;;;;;;10.48;78.69;101160.16;1798670;78;25789;-69
2021/09/08 05:53:59;;;;;;;23.62;14.30;;;;;;;10.65;78.32;101154.29;1782449;78;27315;-68
2021/09/08 05:56:26;;;;;;;23.30;14.20;;;;;;;10.84;78.46;101150.27;1729053;81;25768;-68
2021/09/08 05:58:52;;;;;;;32.08;15.68;;;;;;;11.04;78.53;101150.56;1778452;79;25449;-68
2021/09/08 06:01:19;;;;;;;23.45;15.08;;;;;;;11.26;78.46;101155.42;1779018;79;26997;-68
2021/09/08 06:03:45;;;;;;;27.65;15.32;;;;;;;11.45;78.15;101138.36;1779241;79;25897;-68
2021/09/08 06:06:11;;;;;;;29.50;15.50;;;;;;;11.68;78.35;101141.52;1732441;80;27270;-68
2021/09/08 06:08:38;;;;;;;24.50;15.50;;;;;;;11.87;77.57;101144.19;1724440;80;25618;-68
2021/09/08 06:11:04;;;;;;;35.48;15.75;;;;;;;12.08;77.02;101145.23;1722459;80;25454;-68
2021/09/08 06:13:31;;;;;;;32.15;17.50;;;;;;;12.29;77.31;101146.48;1739754;81;26043;-68
2021/09/08 06:15:58;;;;;;;31.62;17.52;;;;;;;12.49;76.63;101139.84;1724576;81;25468;-67
2021/09/08 06:18:24;;;;;;;31.80;16.67;;;;;;;12.70;76.50;101147.05;1720596;81;27794;-68
2021/09/08 06:20:51;;;;;;;30.23;18.52;;;;;;;12.95;76.42;101139.47;1784043;77;25523;-68
2021/09/08 06:23:18;;;;;;;30.12;18.27;;;;;;;13.19;76.18;101147.37;1784034;77;25761;-66
2021/09/08 06:25:45;;;;;;;36.33;17.98;;;;;;;13.44;75.08;101146.02;1788824;78;26317;-66
2021/09/08 06:28:11;;;;;;;29.82;18.25;;;;;;;13.61;74.33;101146.71;1783007;79;25757;-66
2021/09/08 06:30:38;;;;;;;38.88;21.15;;;;;;;13.84;74.26;101152.14;1787660;78;27293;-66
2021/09/08 06:33:04;;;;;;;33.80;18.92;;;;;;;14.12;74.69;101158.24;1772697;78;25693;-66
2021/09/08 06:35:31;;;;;;;36.95;20.60;;;;;;;14.46;74.12;101158.73;1787702;78;25785;-66
2021/09/08 06:37:59;;;;;;;31.87;18.75;;;;;;;14.80;74.71;101158.08;1800862;78;25941;-67
2021/09/08 06:40:26;;;;;;;30.43;18.95;;;;;;;15.18;74.44;101149.33;1797582;78;25660;-66
2021/09/08 06:42:53;;;;;;;30.85;19.17;;;;;;;15.56;74.21;101144.63;1806894;78;27232;-66
2021/09/08 06:45:19;;;;;;;32.42;20.08;;;;;;;15.96;72.33;101146.36;1808898;78;25804;-66
2021/09/08 06:47:45;;;;;;;31.95;19.02;;;;;;;16.22;71.69;101151.73;1805334;78;25630;-66
2021/09/08 06:50:12;;;;;;;28.85;19.75;;;;;;;16.59;70.81;101152.86;1812810;78;25855;-68
2021/09/08 06:52:38;;;;;;;32.63;21.15;;;;;;;16.95;70.39;101156.24;1813121;78;25795;-67
2021/09/08 06:55:06;;;;;;;34.98;20.57;;;;;;;17.31;69.80;101165.23;1803084;78;27301;-67
2021/09/08 06:57:33;;;;;;;32.85;21.35;;;;;;;17.66;69.21;101154.59;1793644;78;25695;-67
2021/09/08 06:59:59;;;;;;;36.28;20.30;;;;;;;18.03;68.73;101156.08;1797289;78;25748;-68
2021/09/08 07:02:26;;;;;;;30.30;20.32;;;;;;;18.44;67.71;101155.13;1806847;78;25989;-67
2021/09/08 07:04:52;;;;;;;32.65;19.67;;;;;;;18.79;66.05;101158.77;1812692;77;25802;-67
2021/09/08 07:07:20;;;;;;;33.88;21.17;;;;;;;19.06;65.24;101161.97;1818361;78;27296;-68
2021/09/08 07:09:47;;;;;;;34.15;19.50;;;;;;;19.39;65.05;101157.67;1805212;77;25981;-68
2021/09/08 07:12:14;;;;;;;29.55;19.73;;;;;;;19.74;63.67;101162.58;1787433;78;25721;-67
2021/09/08 07:14:41;;;;;;;33.05;19.98;;;;;;;20.11;63.63;101166.52;1807633;78;25796;-67
2021/09/08 07:17:07;;;;;;;29.87;19.40;;;;;;;20.48;62.72;101161.33;1794457;78;25406;-68
2021/09/08 07:19:34;;;;;;;27.52;17.95;;;;;;;20.82;62.06;101169.45;1780094;78;27311;-68
2021/09/08 07:22:01;;;;;;;31.15;19.37;;;;;;;21.16;61.26;101167.62;1787641;78;25839;-68
2021/09/08 07:24:28;;;;;;;32.10;20.17;;;;;;;21.42;60.37;101161.50;1801110;77;25467;-68
2021/09/08 07:26:57;;;;;;;29.55;18.30;;;;;;;21.77;59.66;101175.19;1800376;77;25789;-68
2021/09/08 07:29:25;;;;;;;31.45;18.55;;;;;;;22.12;59.12;101169.34;1816450;78;25577;-69
2021/09/08 07:31:52;;;;;;;30.17;18.35;;;;;;;22.47;58.69;101171.12;1817096;78;26815;-68
2021/09/08 07:34:19;;;;;;;28.47;19.05;;;;;;;22.79;57.08;101168.08;1780626;79;25625;-68
2021/09/08 07:36:46;;;;;;;31.50;18.60;;;;;;;23.09;56.08;101167.55;1773446;79;25491;-68
2021/09/08 07:39:12;;;;;;;27.15;17.80;;;;;;;23.35;55.28;101163.16;1775304;79;25811;-69
2021/09/08 07:41:39;;;;;;;30.72;18.35;;;;;;;23.64;55.12;101167.64;1776408;79;25582;-68
2021/09/08 07:44:06;;;;;;;32.53;18.55;;;;;;;24.00;53.98;101166.66;1780496;79;27314;-69
2021/09/08 07:46:33;;;;;;;30.95;17.85;;;;;;;24.36;53.70;101168.36;1782782;79;26579;-68
2021/09/08 07:49:00;;;;;;;27.13;18.05;;;;;;;24.67;52.73;101160.71;1777559;79;25494;-69
2021/09/08 07:51:27;;;;;;;36.30;17.35;;;;;;;24.92;51.93;101172.73;1804352;78;26272;-68
2021/09/08 07:53:53;;;;;;;34.30;17.42;;;;;;;25.14;50.89;101165.34;1783088;78;25859;-68
2021/09/08 07:56:20;;;;;;;31.15;16.97;;;;;;;25.40;51.04;101164.88;1804408;78;29435;-68
2021/09/08 07:58:47;;;;;;;31.27;16.23;;;;;;;25.73;50.15;101169.35;1803001;78;25922;-69
2021/09/08 08:01:13;;;;;;;30.95;17.12;;;;;;;26.03;49.75;101169.65;1811036;78;25490;-69
2021/09/08 08:03:40;;;;;;;34.18;17.02;;;;;;;26.35;48.45;101168.06;1816169;78;27821;-68
2021/09/08 08:06:06;;;;;;;25.92;17.92;;;;;;;26.67;47.58;101170.06;1790118;78;25792;-68
2021/09/08 08:08:33;;;;;;;26.75;16.48;;;;;;;27.00;46.30;101165.43;1799974;77;27998;-69
2021/09/08 08:10:59;;;;;;;29.40;16.37;;;;;;;27.19;45.92;101168.34;1797237;78;25435;-68
2021/09/08 08:13:27;;;;;;;24.45;16.60;;;;;;;27.41;45.04;101162.70;1808223;77;25691;-68
2021/09/08 08:15:54;;;;;;;29.10;16.05;;;;;;;27.69;44.80;101168.72;1774872;78;25773;-68
2021/09/08 08:18:21;;;;;;;26.07;16.02;;;;;;;28.13;44.05;101165.09;1797846;78;25716;-68
2021/09/08 08:20:47;;;;;;;29.75;15.58;;;;;;;28.55;43.67;101165.93;1786561;78;27308;-67
2021/09/08 08:23:14;;;;;;;29.45;15.03;;;;;;;28.85;42.57;101158.89;1788881;78;25583;-67
2021/09/08 08:25:43;;;;;;;27.22;14.93;;;;;;;28.97;42.34;101165.30;1798193;78;25539;-68
2021/09/08 08:28:09;;;;;;;26.57;14.40;;;;;;;29.28;41.73;101163.97;1774929;78;25867;-71
2021/09/08 08:30:36;;;;;;;28.02;14.50;;;;;;;29.60;41.37;101169.12;1781116;79;25893;-69
2021/09/08 08:33:04;;;;;;;26.05;15.35;;;;;;;29.84;40.12;101169.83;1782334;79;27302;-69
2021/09/08 08:35:32;;;;;;;24.30;13.93;;;;;;;29.95;39.53;101162.87;1775101;79;25403;-69
2021/09/08 08:37:59;;;;;;;26.42;12.95;;;;;;;30.14;38.48;101168.34;1781771;79;25798;-70
2021/09/08 08:40:26;;;;;;;21.52;12.75;;;;;;;30.30;38.90;101163.49;1777515;79;26237;-72
2021/09/08 08:42:53;;;;;;;21.77;13.88;;;;;;;30.47;37.69;101167.83;1781029;79;25605;-70
2021/09/08 08:45:20;;;;;;;26.05;12.47;;;;;;;30.54;36.97;101166.30;1779712;79;27329;-71
2021/09/08 08:47:48;;;;;;;24.95;12.82;;;;;;;30.57;36.67;101165.45;1782195;79;26340;-78
2021/09/08 08:50:16;;;;;;;26.02;12.88;;;;;;;30.68;36.64;101169.44;1785542;79;25910;-70
2021/09/08 08:52:43;;;;;;;23.87;12.65;;;;;;;30.78;36.63;101162.86;1784176;79;26193;-71
2021/09/08 08:55:10;;;;;;;20.97;12.50;;;;;;;30.91;36.32;101169.39;1779336;79;25636;-69
2021/09/08 08:57:40;;;;;;;16.60;12.07;;;;;;;31.03;35.99;101164.42;1770822;78;27487;-67
2021/09/08 09:00:08;;;;;;;23.42;12.98;;;;;;;31.15;35.51;101158.18;1783927;79;25810;-68
2021/09/08 09:02:36;;;;;;;15.30;11.93;;;;;;;31.20;35.38;101161.86;1762950;79;26295;-69
2021/09/08 09:05:05;;;;;;;21.55;12.07;;;;;;;31.30;34.85;101156.50;1781852;79;26251;-70
2021/09/08 09:07:45;;;;;;;19.87;12.40;;;;;;;31.16;34.05;101155.58;1784267;79;27045;-70
2021/09/08 09:10:14;;;;;;;19.17;12.03;;;;;;;30.99;34.32;101162.29;1738904;80;27328;-69
2021/09/08 09:12:44;;;;;;;16.12;11.25;;;;;;;31.03;34.38;101164.42;1788363;79;25913;-71
2021/09/08 09:15:16;;;;;;;18.20;12.18;;;;;;;30.73;34.23;101154.39;1777439;79;25633;-71
2021/09/08 09:17:44;;;;;;;16.48;11.48;;;;;;;30.76;34.43;101151.95;1772921;79;25629;-71
2021/09/08 09:20:14;;;;;;;;;;;;;;;30.92;34.31;101149.22;1778943;79;25988;-69
2021/09/08 09:22:57;;;;;;;19.20;12.90;;;;;;;31.00;34.02;101155.50;1756502;79;27509;-70
2021/09/08 09:25:29;;;;;;;20.52;11.73;;;;;;;31.03;34.05;101161.02;1808407;78;25703;-70
2021/09/08 09:27:59;;;;;;;20.48;12.58;;;;;;;31.09;34.04;101148.13;1792566;78;25707;-70
2021/09/08 09:30:29;;;;;;;17.27;11.28;;;;;;;31.19;33.53;101149.10;1777667;78;25861;-70
2021/09/08 09:32:59;;;;;;;18.67;10.78;;;;;;;31.24;34.16;101145.80;1780273;79;25439;-69
2021/09/08 09:38:02;;;;;;;20.30;12.90;;;;;;;31.72;33.72;101145.59;1723027;80;25784;-69
2021/09/08 09:40:33;;;;;;;19.52;11.08;;;;;;;31.76;33.17;101150.50;1730758;80;25457;-69
2021/09/08 09:43:07;;;;;;;19.62;10.70;;;;;;;31.89;33.35;101143.59;1729940;80;25824;-68
2021/09/08 09:45:39;;;;;;;21.42;11.18;;;;;;;32.05;33.64;101138.63;1737784;80;25634;-70
2021/09/08 09:48:07;;;;;;;16.02;11.22;;;;;;;32.31;33.56;101138.19;1735801;81;27350;-68
2021/09/08 09:50:35;;;;;;;18.65;11.78;;;;;;;32.56;33.34;101133.33;1713979;80;25850;-71
2021/09/08 09:53:03;;;;;;;19.35;12.40;;;;;;;32.87;33.21;101137.10;1724415;80;25655;-70
2021/09/08 09:55:29;;;;;;;16.45;11.38;;;;;;;33.09;32.70;101135.87;1737548;81;25793;-70
2021/09/08 09:57:58;;;;;;;19.50;11.22;;;;;;;33.24;32.67;101128.64;1783947;78;25533;-70
2021/09/08 10:00:25;;;;;;;16.48;10.85;;;;;;;33.43;32.07;101128.25;1797066;78;27347;-71
2021/09/08 10:02:52;;;;;;;14.65;10.23;;;;;;;33.54;32.02;101129.94;1788235;78;25661;-72
2021/09/08 10:05:19;;;;;;;14.07;9.75;;;;;;;33.63;30.88;101123.83;1797250;78;25720;-73
2021/09/08 10:07:46;;;;;;;14.00;9.68;;;;;;;33.69;30.64;101117.84;1783224;78;26141;-72
2021/09/08 10:10:27;;;;;;;15.30;9.63;;;;;;;33.68;30.48;101112.70;1783788;78;25852;-70
2021/09/08 10:13:13;;;;;;;15.95;10.13;;;;;;;33.77;30.25;101112.02;1785814;77;27315;-72
2021/09/08 10:15:40;;;;;;;13.30;10.72;;;;;;;33.21;29.64;101116.13;1726380;81;25803;-73
2021/09/08 10:18:10;;;;;;;16.48;10.18;;;;;;;32.83;30.00;101108.39;1725783;81;26096;-72
2021/09/08 10:20:37;;;;;;;16.70;10.25;;;;;;;32.89;30.69;101105.22;1782347;78;25738;-72
2021/09/08 10:23:10;;;;;;;16.17;9.75;;;;;;;33.02;30.14;101108.84;1810318;78;25655;-71
2021/09/08 10:25:38;;;;;;;16.17;11.40;;;;;;;33.11;30.49;101099.77;1794901;77;27442;-72
2021/09/08 10:28:05;;;;;;;13.45;10.30;;;;;;;33.10;29.56;101113.61;1770358;78;25706;-73
2021/09/08 10:30:33;;;;;;;16.23;11.15;;;;;;;32.81;28.99;101108.86;1778963;80;25521;-72
2021/09/08 10:33:04;;;;;;;14.95;11.10;;;;;;;32.60;29.63;101109.42;1763225;78;26242;-70
2021/09/08 10:35:34;;;;;;;15.83;11.25;;;;;;;32.71;29.88;101109.33;1803036;77;25857;-71
2021/09/08 10:38:00;;;;;;;17.30;11.33;;;;;;;33.00;30.12;101105.70;1783605;77;27541;-71
2021/09/08 10:40:30;;;;;;;13.45;10.85;;;;;;;33.53;29.92;101119.34;1720707;80;25629;-71
2021/09/08 10:43:00;;;;;;;15.93;11.38;;;;;;;33.37;29.08;101104.03;1724633;81;25912;-72
2021/09/08 10:45:32;;;;;;;18.07;11.10;;;;;;;33.23;29.34;101099.65;1785343;79;26270;-73
2021/09/08 10:48:03;;;;;;;13.25;10.32;;;;;;;33.33;29.35;101097.13;1790533;77;25491;-70
2021/09/08 10:50:43;;;;;;;13.90;9.10;;;;;;;33.10;28.64;101089.78;1784296;79;27299;-73
2021/09/08 10:53:28;;;;;;;13.78;9.58;;;;;;;32.92;28.75;101098.11;1785878;79;25830;-67
2021/09/08 10:55:56;;;;;;;13.38;9.28;;;;;;;32.40;29.44;101115.94;1789544;80;26238;-67
2021/09/08 10:58:22;;;;;;;13.55;9.60;;;;;;;32.40;29.44;101115.94;1783048;79;25677;-67
2021/09/08 11:00:50;;;;;;;12.80;8.25;;;;;;;32.41;29.75;101088.13;1804263;78;25561;-68
2021/09/08 11:03:22;;;;;;;11.28;8.55;;;;;;;32.83;29.39;101090.98;1726272;81;27385;-67
2021/09/08 11:05:57;;;;;;;11.38;8.23;;;;;;;33.30;29.68;101099.42;1732967;81;25942;-68
2021/09/08 11:08:33;;;;;;;11.33;7.95;;;;;;;33.50;28.63;101087.37;1725128;81;25569;-70
2021/09/08 11:11:19;;;;;;;11.68;7.70;;;;;;;33.38;27.91;101083.18;1731196;81;25782;-68
2021/09/08 11:13:54;;;;;;;13.85;8.35;;;;;;;33.30;27.35;101084.01;1786249;78;25709;-69
2021/09/08 11:16:32;;;;;;;10.32;8.00;;;;;;;33.22;27.33;101090.47;1792632;77;27275;-70
2021/09/08 11:19:03;;;;;;;10.15;7.55;;;;;;;33.39;27.82;101079.12;1775868;79;25360;-69